Cornwall, Canada
Current Conditions -  °F | °C
As of 9:00 PM on Friday 21 Nov 2014 (Local Time) from CYYG Reporting Station
Snow Showers Snow Showers  
Wind Chill: 10°   Ceiling: 4800
Heat Index: 25°   Visibility: 12mi
Dew Point: 14°   Wind: 22mph
Humidity: 64%   Direction: 290°WNW
Pressure: 29.89"   Gusts: 30mph
Location:  46.23°N, 63.22°W
Report Text: CYYG 220100Z 29019G26KT 12SM -SHSN SCT030 BKN048 M04/M10 A2989 RMK CU3SC4 SLP124
Loading
Personal Weather Stations






























Interactive Weather Map New forecast layout! Learn more

10-Day Weather Forecast

Advertisements
Track Severe Weather on mobile